DLH845 ENZV-EHAM
Flight info
| Callsign | DLH845 |
|---|---|
| Flight time | N/A |
| Altitude | 32000 |
| Route | RUMUG ROLVA TOPPA SUGOL AM669 RW36R |
| Aircraft | A346/H-VGDW/C |
Departure
| Time | 2026-04-23 11:20 |
|---|---|
| Airport | Stavanger Airport, Sola (ENZV) |
Arrival
| Time | N/A |
|---|---|
| Airport | Amsterdam Airport Schiphol (EHAM) |
| Time | Latitude | Longitude | Altitude | Speed | Heading |
|---|---|---|---|---|---|
| 2026-04-23 11:12 | 58.88053 | 5.62752 | 44 ft | 0 kts | 7° |
| 2026-04-23 11:17 | 58.88040 | 5.62747 | 44 ft | 2 kts | 34° |
| 2026-04-23 11:17 | 58.88036 | 5.62736 | 44 ft | 0 kts | 112° |
| 2026-04-23 11:17 | 58.88007 | 5.62912 | 45 ft | 24 kts | 97° |
| 2026-04-23 11:17 | 58.88091 | 5.63225 | 45 ft | 28 kts | 43° |
| 2026-04-23 11:18 | 58.88249 | 5.63342 | 43 ft | 25 kts | 15° |
| 2026-04-23 11:18 | 58.88428 | 5.63424 | 42 ft | 27 kts | 2° |
| 2026-04-23 11:18 | 58.88589 | 5.63422 | 40 ft | 22 kts | 359° |
| 2026-04-23 11:18 | 58.88755 | 5.63417 | 39 ft | 25 kts | 359° |
| 2026-04-23 11:19 | 58.88930 | 5.63409 | 37 ft | 26 kts | 358° |
| 2026-04-23 11:19 | 58.89117 | 5.63401 | 35 ft | 27 kts | 359° |
| 2026-04-23 11:19 | 58.89285 | 5.63395 | 33 ft | 18 kts | 9° |
| 2026-04-23 11:19 | 58.89353 | 5.63582 | 33 ft | 19 kts | 79° |
| 2026-04-23 11:20 | 58.89252 | 5.63742 | 36 ft | 43 kts | 182° |
| 2026-04-23 11:20 | 58.88640 | 5.63743 | 40 ft | 130 kts | 181° |
| 2026-04-23 11:20 | 58.87477 | 5.63765 | 55 ft | 200 kts | 181° |
| 2026-04-23 11:20 | 58.86099 | 5.63834 | 1019 ft | 189 kts | 183° |
| 2026-04-23 11:21 | 58.84782 | 5.63709 | 1857 ft | 196 kts | 192° |
| 2026-04-23 11:21 | 58.83393 | 5.63318 | 2524 ft | 207 kts | 192° |
| 2026-04-23 11:21 | 58.81948 | 5.62891 | 3348 ft | 212 kts | 193° |
| 2026-04-23 11:21 | 58.80520 | 5.62219 | 4219 ft | 210 kts | 208° |
| 2026-04-23 11:22 | 58.79248 | 5.60947 | 5148 ft | 205 kts | 218° |
| 2026-04-23 11:22 | 58.78001 | 5.59540 | 6023 ft | 207 kts | 219° |
| 2026-04-23 11:22 | 58.76775 | 5.58178 | 6925 ft | 205 kts | 218° |
| 2026-04-23 11:22 | 58.75533 | 5.56836 | 7787 ft | 203 kts | 217° |
| 2026-04-23 11:23 | 58.74299 | 5.55524 | 8662 ft | 202 kts | 217° |
| 2026-04-23 11:23 | 58.73038 | 5.54214 | 9398 ft | 209 kts | 216° |
| 2026-04-23 11:23 | 58.71721 | 5.52914 | 10099 ft | 219 kts | 207° |
| 2026-04-23 11:23 | 58.70320 | 5.51802 | 10845 ft | 215 kts | 217° |
| 2026-04-23 11:24 | 58.69017 | 5.50347 | 11614 ft | 213 kts | 221° |
| 2026-04-23 11:24 | 58.67772 | 5.48797 | 12388 ft | 211 kts | 221° |
| 2026-04-23 11:24 | 58.66575 | 5.47200 | 13157 ft | 208 kts | 223° |
| 2026-04-23 11:24 | 58.65398 | 5.45639 | 13927 ft | 202 kts | 220° |
| 2026-04-23 11:25 | 58.64290 | 5.44055 | 14598 ft | 198 kts | 221° |
| 2026-04-23 11:25 | 58.63186 | 5.42441 | 15085 ft | 201 kts | 223° |
| 2026-04-23 11:25 | 58.62056 | 5.40845 | 15581 ft | 203 kts | 223° |
| 2026-04-23 11:25 | 58.60910 | 5.39258 | 16051 ft | 204 kts | 221° |
| 2026-04-23 11:26 | 58.59759 | 5.37659 | 16567 ft | 204 kts | 222° |
| 2026-04-23 11:26 | 58.58583 | 5.36086 | 17067 ft | 207 kts | 214° |
| 2026-04-23 11:26 | 58.57186 | 5.35201 | 17421 ft | 224 kts | 196° |
| 2026-04-23 11:26 | 58.55602 | 5.34730 | 17716 ft | 236 kts | 192° |
| 2026-04-23 11:27 | 58.53932 | 5.34350 | 18000 ft | 248 kts | 192° |
| 2026-04-23 11:27 | 58.52171 | 5.33967 | 18290 ft | 258 kts | 191° |
| 2026-04-23 11:27 | 58.50364 | 5.33517 | 18721 ft | 265 kts | 191° |
| 2026-04-23 11:27 | 58.48504 | 5.32953 | 19177 ft | 270 kts | 195° |
| 2026-04-23 11:28 | 58.46644 | 5.32290 | 19666 ft | 274 kts | 195° |
| 2026-04-23 11:28 | 58.44745 | 5.31550 | 19985 ft | 288 kts | 195° |
| 2026-04-23 11:28 | 58.42747 | 5.30992 | 20343 ft | 299 kts | 192° |
| 2026-04-23 11:28 | 58.40652 | 5.30467 | 20735 ft | 308 kts | 190° |
| 2026-04-23 11:29 | 58.38490 | 5.29895 | 21126 ft | 319 kts | 192° |
| 2026-04-23 11:29 | 58.36261 | 5.29286 | 21441 ft | 330 kts | 191° |
| 2026-04-23 11:29 | 58.33944 | 5.28609 | 21715 ft | 343 kts | 192° |
| 2026-04-23 11:29 | 58.31545 | 5.27901 | 21958 ft | 355 kts | 191° |
| 2026-04-23 11:30 | 58.29058 | 5.27164 | 22226 ft | 368 kts | 192° |
| 2026-04-23 11:30 | 58.26488 | 5.26416 | 22496 ft | 380 kts | 191° |
| 2026-04-23 11:30 | 58.23833 | 5.25602 | 22772 ft | 392 kts | 191° |
| 2026-04-23 11:30 | 58.21107 | 5.24726 | 23037 ft | 403 kts | 191° |
| 2026-04-23 11:31 | 58.18302 | 5.23835 | 23315 ft | 415 kts | 192° |
| 2026-04-23 11:31 | 58.15417 | 5.22922 | 23593 ft | 424 kts | 191° |
| 2026-04-23 11:31 | 58.12492 | 5.21992 | 23865 ft | 427 kts | 191° |
| 2026-04-23 11:31 | 58.09555 | 5.21031 | 24113 ft | 428 kts | 191° |
| 2026-04-23 11:32 | 58.06650 | 5.20065 | 24338 ft | 430 kts | 191° |
| 2026-04-23 11:32 | 58.03697 | 5.19092 | 24574 ft | 431 kts | 191° |
| 2026-04-23 11:32 | 58.00736 | 5.18120 | 24808 ft | 432 kts | 191° |
| 2026-04-23 11:32 | 57.97785 | 5.17143 | 25041 ft | 432 kts | 191° |
| 2026-04-23 11:33 | 57.94819 | 5.16158 | 25285 ft | 433 kts | 191° |
| 2026-04-23 11:33 | 57.91851 | 5.15189 | 25525 ft | 433 kts | 192° |
| 2026-04-23 11:33 | 57.89881 | 5.14559 | 25686 ft | 434 kts | 191° |
| 2026-04-23 11:33 | 57.86904 | 5.13593 | 25933 ft | 435 kts | 191° |
| 2026-04-23 11:34 | 57.83922 | 5.12608 | 26180 ft | 435 kts | 192° |
| 2026-04-23 11:34 | 57.80935 | 5.11637 | 26430 ft | 436 kts | 191° |
| 2026-04-23 11:34 | 57.77947 | 5.10659 | 26685 ft | 436 kts | 191° |
| 2026-04-23 11:34 | 57.74951 | 5.09669 | 26949 ft | 437 kts | 191° |
| 2026-04-23 11:35 | 57.71952 | 5.08663 | 27181 ft | 438 kts | 192° |
| 2026-04-23 11:35 | 57.68946 | 5.07672 | 27461 ft | 438 kts | 192° |
| 2026-04-23 11:35 | 57.65941 | 5.06706 | 27721 ft | 438 kts | 191° |
| 2026-04-23 11:35 | 57.62929 | 5.05726 | 27983 ft | 440 kts | 192° |
| 2026-04-23 11:36 | 57.59905 | 5.04735 | 28255 ft | 441 kts | 192° |
| 2026-04-23 11:36 | 57.56883 | 5.03759 | 28525 ft | 441 kts | 192° |
| 2026-04-23 11:36 | 57.53856 | 5.02802 | 28786 ft | 441 kts | 191° |
| 2026-04-23 11:36 | 57.50837 | 5.01814 | 29057 ft | 442 kts | 191° |
| 2026-04-23 11:37 | 57.47834 | 5.00807 | 29340 ft | 443 kts | 191° |
| 2026-04-23 11:37 | 57.44805 | 4.99804 | 29614 ft | 443 kts | 191° |
| 2026-04-23 11:37 | 57.41767 | 4.98814 | 29894 ft | 443 kts | 191° |
| 2026-04-23 11:37 | 57.38729 | 4.97819 | 30177 ft | 446 kts | 191° |
| 2026-04-23 11:38 | 57.35663 | 4.96799 | 30472 ft | 447 kts | 191° |
| 2026-04-23 11:38 | 57.32596 | 4.95800 | 30728 ft | 446 kts | 191° |
| 2026-04-23 11:38 | 57.29536 | 4.94817 | 30959 ft | 447 kts | 192° |
| 2026-04-23 11:38 | 57.26467 | 4.93819 | 31203 ft | 449 kts | 191° |
| 2026-04-23 11:39 | 57.23371 | 4.92780 | 31453 ft | 449 kts | 191° |
| 2026-04-23 11:39 | 57.20291 | 4.91747 | 31714 ft | 447 kts | 191° |
| 2026-04-23 11:39 | 57.17202 | 4.90717 | 31960 ft | 450 kts | 191° |
| 2026-04-23 11:39 | 57.14113 | 4.89676 | 32215 ft | 453 kts | 191° |
| 2026-04-23 11:40 | 57.10982 | 4.88619 | 32424 ft | 455 kts | 191° |
| 2026-04-23 11:40 | 57.04833 | 4.86171 | 32429 ft | 452 kts | 200° |
| 2026-04-23 11:41 | 56.98995 | 4.81723 | 32452 ft | 453 kts | 204° |
| 2026-04-23 11:41 | 56.93246 | 4.76942 | 32447 ft | 456 kts | 204° |
| 2026-04-23 11:42 | 56.87496 | 4.72137 | 32431 ft | 453 kts | 204° |
| 2026-04-23 11:42 | 56.81728 | 4.67336 | 32470 ft | 455 kts | 204° |
| 2026-04-23 11:43 | 56.76015 | 4.62571 | 32454 ft | 456 kts | 204° |
| 2026-04-23 11:43 | 56.70265 | 4.57728 | 32458 ft | 455 kts | 204° |
| 2026-04-23 11:44 | 56.64513 | 4.52860 | 32459 ft | 456 kts | 204° |
| 2026-04-23 11:44 | 56.58768 | 4.48000 | 32460 ft | 456 kts | 204° |
| 2026-04-23 11:45 | 56.53021 | 4.43152 | 32459 ft | 454 kts | 204° |
| 2026-04-23 11:45 | 56.47247 | 4.38292 | 32469 ft | 456 kts | 204° |
| 2026-04-23 11:46 | 56.41475 | 4.33741 | 32457 ft | 454 kts | 195° |
| 2026-04-23 11:46 | 56.35200 | 4.32085 | 32488 ft | 454 kts | 185° |
| 2026-04-23 11:47 | 56.28907 | 4.31220 | 32474 ft | 454 kts | 184° |
| 2026-04-23 11:47 | 56.22592 | 4.30398 | 32479 ft | 454 kts | 184° |
| 2026-04-23 11:48 | 56.16285 | 4.29534 | 32476 ft | 455 kts | 184° |
| 2026-04-23 11:48 | 56.09965 | 4.28655 | 32477 ft | 455 kts | 184° |
| 2026-04-23 11:49 | 56.03702 | 4.27781 | 32473 ft | 454 kts | 184° |
| 2026-04-23 11:49 | 55.97379 | 4.26905 | 32474 ft | 455 kts | 184° |
| 2026-04-23 11:50 | 55.91075 | 4.26031 | 32483 ft | 454 kts | 184° |
| 2026-04-23 11:50 | 55.84762 | 4.25162 | 32476 ft | 455 kts | 184° |
| 2026-04-23 11:51 | 55.78450 | 4.24294 | 32487 ft | 454 kts | 184° |
| 2026-04-23 11:51 | 55.72134 | 4.23429 | 32476 ft | 455 kts | 184° |
| 2026-04-23 11:52 | 55.65820 | 4.22539 | 32479 ft | 455 kts | 184° |
| 2026-04-23 11:52 | 55.59549 | 4.21635 | 32478 ft | 455 kts | 184° |
| 2026-04-23 11:53 | 55.53232 | 4.20721 | 32482 ft | 455 kts | 184° |
| 2026-04-23 11:53 | 55.46897 | 4.19811 | 32481 ft | 455 kts | 184° |
| 2026-04-23 11:54 | 55.40571 | 4.18875 | 32476 ft | 455 kts | 184° |
| 2026-04-23 11:54 | 55.34229 | 4.17898 | 32473 ft | 456 kts | 184° |
| 2026-04-23 11:55 | 55.27903 | 4.16922 | 32473 ft | 456 kts | 184° |
| 2026-04-23 11:55 | 55.21564 | 4.15950 | 32475 ft | 456 kts | 184° |
| 2026-04-23 11:56 | 55.15246 | 4.14969 | 32480 ft | 456 kts | 184° |
| 2026-04-23 11:56 | 55.08897 | 4.13956 | 32487 ft | 456 kts | 184° |
| 2026-04-23 11:57 | 55.02593 | 4.12649 | 32488 ft | 457 kts | 187° |
| 2026-04-23 11:57 | 54.96314 | 4.10885 | 32493 ft | 457 kts | 188° |
| 2026-04-23 11:58 | 54.90328 | 4.09157 | 32497 ft | 457 kts | 188° |
| 2026-04-23 11:58 | 54.83761 | 4.07214 | 32496 ft | 457 kts | 188° |
| 2026-04-23 11:59 | 54.77516 | 4.05365 | 32495 ft | 457 kts | 188° |
| 2026-04-23 11:59 | 54.71244 | 4.03512 | 32496 ft | 457 kts | 188° |
| 2026-04-23 12:00 | 54.64940 | 4.01640 | 32501 ft | 457 kts | 188° |
| 2026-04-23 12:00 | 54.58679 | 3.99750 | 32501 ft | 456 kts | 188° |
| 2026-04-23 12:01 | 54.52395 | 3.97853 | 32501 ft | 457 kts | 188° |